Time;durP1;ratioP1;P1;durP2;ratioP2;P2;SDS_P1;SDS_P2;PMS_P1;PMS_P2;Temp;Humidity;BMP_temperature;BMP_pressure;BME280_temperature;BME280_humidity;BME280_pressure;Samples;Min_cycle;Max_cycle;Signal;HPM_P1;HPM_P2
2024/02/07 00:00:36;;;;;;;1.90;0.60;;;;;;;9.49;100.00;99218.25;5054815;28;20430;-71
2024/02/07 00:03:04;;;;;;;2.23;0.63;;;;;;;9.50;100.00;99200.91;5054854;28;20547;-69
2024/02/07 00:05:31;;;;;;;2.00;0.70;;;;;;;9.53;100.00;99197.56;5054727;28;20890;-69
2024/02/07 00:07:58;;;;;;;1.80;0.70;;;;;;;9.48;100.00;99200.47;5054990;28;20541;-69
2024/02/07 00:10:24;;;;;;;2.10;0.90;;;;;;;9.49;100.00;99191.25;5054563;28;20849;-69
2024/02/07 00:12:51;;;;;;;2.33;0.83;;;;;;;9.49;100.00;99188.53;5054806;28;20541;-69
2024/02/07 00:15:17;;;;;;;1.60;0.50;;;;;;;9.48;100.00;99186.97;5054754;28;20528;-69
2024/02/07 00:17:46;;;;;;;2.37;0.83;;;;;;;9.47;100.00;99180.72;5054772;28;20517;-70
2024/02/07 00:20:15;;;;;;;1.87;0.63;;;;;;;9.47;100.00;99191.53;5054046;28;20496;-68
2024/02/07 00:22:41;;;;;;;3.57;1.37;;;;;;;9.49;100.00;99173.09;5054505;28;21058;-69
2024/02/07 00:25:08;;;;;;;2.37;0.97;;;;;;;9.51;100.00;99172.75;5054267;28;20521;-69
2024/02/07 00:27:35;;;;;;;2.80;1.50;;;;;;;9.51;100.00;99167.34;5054561;28;20442;-69
2024/02/07 00:30:02;;;;;;;1.73;0.60;;;;;;;9.52;100.00;99167.06;5054524;28;20442;-69
2024/02/07 00:32:29;;;;;;;1.70;0.57;;;;;;;9.52;100.00;99171.66;5054694;28;20490;-69
2024/02/07 00:34:55;;;;;;;1.70;0.60;;;;;;;9.58;100.00;99170.34;5054458;28;20474;-69
2024/02/07 00:37:23;;;;;;;2.07;0.77;;;;;;;9.62;100.00;99171.28;5054343;28;20474;-69
2024/02/07 00:39:50;;;;;;;5.23;0.93;;;;;;;9.59;100.00;99153.00;5054314;28;20477;-69
2024/02/07 00:42:17;;;;;;;3.53;1.00;;;;;;;9.61;100.00;99110.22;5054558;28;20537;-69
2024/02/07 00:44:43;;;;;;;2.63;1.37;;;;;;;9.59;100.00;99166.50;5054243;28;20438;-69
2024/02/07 00:47:11;;;;;;;2.33;0.70;;;;;;;9.50;100.00;99147.66;5054147;28;20470;-69
2024/02/07 00:49:37;;;;;;;2.87;1.00;;;;;;;9.59;100.00;99129.47;5053864;28;20453;-72
2024/02/07 00:52:05;;;;;;;2.50;1.57;;;;;;;9.62;100.00;99175.88;5053692;28;20986;-71
2024/02/07 00:54:33;;;;;;;2.47;0.60;;;;;;;9.61;100.00;99183.22;5053755;28;20442;-70
2024/02/07 00:57:00;;;;;;;3.87;1.00;;;;;;;9.57;100.00;99210.09;5053797;28;20442;-69
2024/02/07 00:59:27;;;;;;;1.73;0.50;;;;;;;9.46;100.00;99243.22;5054323;28;20525;-70
2024/02/07 01:01:54;;;;;;;1.57;0.37;;;;;;;9.11;100.00;99238.00;5053969;28;20458;-69
2024/02/07 01:04:21;;;;;;;1.60;0.50;;;;;;;8.82;100.00;99253.03;5053667;28;20813;-70
2024/02/07 01:06:48;;;;;;;1.60;0.50;;;;;;;8.56;100.00;99250.38;5054263;28;20446;-70
2024/02/07 01:09:16;;;;;;;1.77;0.53;;;;;;;8.34;100.00;99254.03;5054182;28;20442;-70
2024/02/07 01:11:44;;;;;;;1.50;0.30;;;;;;;8.24;100.00;99261.66;5053697;28;21012;-70
2024/02/07 01:14:10;;;;;;;1.60;0.40;;;;;;;8.10;100.00;99253.72;5054127;28;20496;-70
2024/02/07 01:16:37;;;;;;;1.60;0.40;;;;;;;8.07;100.00;99263.25;5053434;28;20533;-69
2024/02/07 01:19:03;;;;;;;1.60;0.40;;;;;;;7.92;100.00;99254.81;5054054;28;20513;-70
2024/02/07 01:21:30;;;;;;;1.50;0.40;;;;;;;7.77;100.00;99266.84;5053632;28;20443;-71
2024/02/07 01:23:57;;;;;;;1.60;0.40;;;;;;;7.70;100.00;99274.59;5053733;28;20476;-69
2024/02/07 01:26:24;;;;;;;1.50;0.30;;;;;;;7.52;100.00;99269.16;5053727;28;20481;-70
2024/02/07 01:28:51;;;;;;;2.17;0.77;;;;;;;7.39;100.00;99280.06;5053430;28;20964;-70
2024/02/07 01:31:19;;;;;;;1.70;0.40;;;;;;;7.32;100.00;99281.31;5052555;28;20577;-70
2024/02/07 01:33:46;;;;;;;1.50;0.30;;;;;;;7.34;100.00;99279.09;5053698;28;20457;-70
2024/02/07 01:36:13;;;;;;;1.50;0.40;;;;;;;7.29;100.00;99298.09;5053661;28;20450;-70
2024/02/07 01:38:41;;;;;;;1.60;0.40;;;;;;;7.23;100.00;99285.88;5053599;28;20529;-70
2024/02/07 01:41:08;;;;;;;1.60;0.40;;;;;;;7.10;100.00;99300.25;5053713;28;20438;-70
2024/02/07 01:43:34;;;;;;;1.87;0.50;;;;;;;7.00;100.00;99295.13;5053542;28;20466;-70
2024/02/07 01:46:02;;;;;;;1.60;0.40;;;;;;;6.78;100.00;99315.56;5053436;28;20950;-70
2024/02/07 01:48:30;;;;;;;1.50;0.30;;;;;;;6.70;100.00;99315.53;5053607;28;20442;-70
2024/02/07 01:50:57;;;;;;;1.53;0.30;;;;;;;6.51;100.00;99318.41;5053616;28;20517;-70
2024/02/07 01:53:27;;;;;;;1.60;0.30;;;;;;;6.30;100.00;99318.06;5054018;28;20482;-70
2024/02/07 01:55:54;;;;;;;1.60;0.40;;;;;;;6.23;100.00;99317.69;5055486;28;20466;-70
2024/02/07 01:58:20;;;;;;;2.10;0.53;;;;;;;6.11;100.00;99315.53;5055263;28;20488;-70
2024/02/07 02:00:48;;;;;;;1.60;0.40;;;;;;;6.11;100.00;99306.66;5055103;28;20477;-71
2024/02/07 02:03:17;;;;;;;1.50;0.40;;;;;;;6.11;100.00;99301.28;5054852;28;20477;-70
2024/02/07 02:05:43;;;;;;;1.53;0.30;;;;;;;6.06;100.00;99302.19;5054026;28;20430;-70
2024/02/07 02:08:11;;;;;;;3.87;0.43;;;;;;;5.96;100.00;99297.81;5053373;28;20529;-71
2024/02/07 02:10:38;;;;;;;1.60;0.40;;;;;;;6.00;100.00;99300.72;5054807;28;20457;-72
2024/02/07 02:13:05;;;;;;;1.50;0.30;;;;;;;6.00;100.00;99298.03;5053470;28;20496;-71
2024/02/07 02:15:33;;;;;;;1.50;0.30;;;;;;;5.99;100.00;99304.50;5054054;28;20525;-71
2024/02/07 02:17:59;;;;;;;1.50;0.30;;;;;;;6.01;100.00;99302.31;5054098;28;20446;-71
2024/02/07 02:20:28;;;;;;;1.50;0.30;;;;;;;6.05;100.00;99289.84;5053208;28;20529;-71
2024/02/07 02:23:08;;;;;;;1.50;0.40;;;;;;;6.01;100.00;99300.41;5053161;28;20458;-71
2024/02/07 02:25:58;;;;;;;1.50;0.40;;;;;;;6.00;100.00;99301.50;5053257;28;20418;-71
2024/02/07 02:28:37;;;;;;;1.50;0.30;;;;;;;5.99;100.00;99305.31;5053489;28;20434;-71
2024/02/07 02:31:10;;;;;;;1.50;0.40;;;;;;;5.91;100.00;99300.59;5052991;28;20418;-70
2024/02/07 02:33:39;;;;;;;1.50;0.30;;;;;;;5.92;100.00;99312.19;5052895;28;20856;-71
2024/02/07 02:36:07;;;;;;;1.50;0.30;;;;;;;5.96;100.00;99313.16;5052973;28;20446;-71
2024/02/07 02:38:35;;;;;;;1.50;0.30;;;;;;;5.92;100.00;99309.47;5053257;28;20446;-70
2024/02/07 02:41:03;;;;;;;2.17;0.63;;;;;;;5.80;100.00;99310.78;5053177;28;20800;-70
2024/02/07 02:43:30;;;;;;;1.50;0.30;;;;;;;5.75;100.00;99302.00;5055337;28;20462;-70
2024/02/07 02:45:57;;;;;;;1.50;0.30;;;;;;;5.82;100.00;99302.41;5056522;28;20462;-70
2024/02/07 02:48:25;;;;;;;1.50;0.40;;;;;;;5.80;100.00;99308.09;5056523;28;20872;-71
2024/02/07 02:50:52;;;;;;;1.50;0.30;;;;;;;5.84;100.00;99305.56;5056675;28;20472;-71
2024/02/07 02:53:18;;;;;;;1.50;0.30;;;;;;;5.76;100.00;99315.16;5055910;28;20889;-71
2024/02/07 02:55:45;;;;;;;1.50;0.30;;;;;;;5.78;100.00;99318.34;5056403;28;20537;-71
2024/02/07 02:58:12;;;;;;;1.50;0.30;;;;;;;5.74;100.00;99320.03;5055997;28;20456;-71
2024/02/07 03:00:40;;;;;;;1.50;0.30;;;;;;;5.71;100.00;99336.75;5055922;28;20815;-71
2024/02/07 03:03:08;;;;;;;1.50;0.30;;;;;;;5.65;100.00;99332.56;5056237;28;20566;-71
2024/02/07 03:05:45;;;;;;;1.53;0.50;;;;;;;5.62;100.00;99340.41;5056313;28;20457;-71
2024/02/07 03:08:21;;;;;;;1.50;0.30;;;;;;;5.50;100.00;99332.88;5056588;28;20414;-71
2024/02/07 03:10:49;;;;;;;1.50;0.30;;;;;;;5.40;100.00;99352.66;5056213;28;20521;-71
2024/02/07 03:13:16;;;;;;;1.50;0.30;;;;;;;5.17;100.00;99332.13;5056105;28;20493;-70
2024/02/07 03:15:43;;;;;;;1.50;0.30;;;;;;;5.16;100.00;99331.34;5055715;28;20537;-70
2024/02/07 03:18:10;;;;;;;1.50;0.30;;;;;;;5.07;100.00;99352.69;5055632;28;21004;-70
2024/02/07 03:20:38;;;;;;;1.50;0.30;;;;;;;4.91;100.00;99347.88;5055943;28;20503;-70
2024/02/07 03:23:04;;;;;;;1.50;0.30;;;;;;;4.78;100.00;99352.94;5055550;28;20992;-70
2024/02/07 03:25:33;;;;;;;1.50;0.30;;;;;;;4.66;100.00;99346.41;5055543;28;20537;-71
2024/02/07 03:28:01;;;;;;;1.70;0.50;;;;;;;4.70;100.00;99353.59;5055940;28;20446;-70
2024/02/07 03:30:28;;;;;;;1.60;0.40;;;;;;;4.74;100.00;99357.28;5055922;28;20448;-71
2024/02/07 03:32:56;;;;;;;1.60;0.50;;;;;;;4.63;100.00;99347.00;5055308;28;20978;-70
2024/02/07 03:35:22;;;;;;;1.50;0.33;;;;;;;4.58;100.00;99339.03;5055651;28;20541;-70
2024/02/07 03:37:51;;;;;;;1.50;0.30;;;;;;;4.55;100.00;99335.03;5055316;28;20469;-70
2024/02/07 03:40:18;;;;;;;1.50;0.30;;;;;;;4.50;100.00;99324.41;5055807;28;20909;-70
2024/02/07 03:42:46;;;;;;;1.50;0.30;;;;;;;4.56;100.00;99342.00;5055394;28;20520;-70
2024/02/07 03:45:15;;;;;;;1.50;0.30;;;;;;;4.54;100.00;99334.25;5055109;28;20533;-70
2024/02/07 03:47:41;;;;;;;1.50;0.30;;;;;;;4.60;100.00;99336.84;5055375;28;20442;-70
2024/02/07 03:50:10;;;;;;;1.50;0.30;;;;;;;4.49;100.00;99328.97;5055681;28;21060;-70
2024/02/07 03:52:37;;;;;;;1.50;0.30;;;;;;;4.44;100.00;99341.66;5055399;28;20860;-70
2024/02/07 03:55:08;;;;;;;1.50;0.40;;;;;;;4.44;100.00;99333.63;5054615;28;20538;-70
2024/02/07 03:57:35;;;;;;;1.50;0.30;;;;;;;4.42;100.00;99343.81;5055393;28;20429;-70
2024/02/07 04:00:03;;;;;;;1.60;0.40;;;;;;;4.42;100.00;99347.28;5055379;28;20530;-70
2024/02/07 04:02:32;;;;;;;1.60;0.40;;;;;;;4.39;100.00;99352.47;5055414;28;20462;-70
2024/02/07 04:05:01;;;;;;;1.50;0.30;;;;;;;4.39;100.00;99352.47;5054734;28;20457;-70
2024/02/07 04:07:28;;;;;;;1.50;0.30;;;;;;;4.41;100.00;99361.00;5055417;28;20499;-70
2024/02/07 04:09:55;;;;;;;1.50;0.30;;;;;;;4.30;100.00;99363.81;5055119;28;21006;-71
2024/02/07 05:17:15;;;;;;;1.50;0.30;;;;;;;3.89;100.00;99327.94;5054893;28;20394;-71
2024/02/07 05:19:42;;;;;;;1.50;0.30;;;;;;;3.81;100.00;99326.72;5053942;28;20922;-70
2024/02/07 05:22:09;;;;;;;2.37;1.57;;;;;;;3.76;100.00;99311.50;5054189;28;20500;-70
2024/02/07 05:24:37;;;;;;;1.50;0.30;;;;;;;3.84;100.00;99315.41;5054619;28;20438;-71
2024/02/07 05:27:06;;;;;;;1.50;0.30;;;;;;;3.82;100.00;99314.13;5053951;28;20442;-69
2024/02/07 05:29:32;;;;;;;1.50;0.30;;;;;;;3.80;100.00;99331.25;5057587;28;20444;-70
2024/02/07 05:31:59;;;;;;;1.50;0.30;;;;;;;3.79;100.00;99329.66;5053423;28;20962;-70
2024/02/07 05:34:27;;;;;;;1.50;0.30;;;;;;;3.84;100.00;99331.47;5054026;28;20525;-70
2024/02/07 05:36:54;;;;;;;1.50;0.30;;;;;;;3.85;100.00;99332.25;5054753;28;20823;-70
2024/02/07 05:39:22;;;;;;;1.73;0.50;;;;;;;3.89;100.00;99341.31;5053676;28;20466;-70
2024/02/07 05:41:49;;;;;;;1.43;0.30;;;;;;;3.92;100.00;99346.91;5053622;28;20457;-69
2024/02/07 05:44:16;;;;;;;1.50;0.30;;;;;;;3.89;100.00;99350.16;5053716;28;20449;-70
2024/02/07 05:46:43;;;;;;;1.50;0.30;;;;;;;3.92;100.00;99354.16;5053155;28;20434;-70
2024/02/07 05:49:10;;;;;;;2.07;1.03;;;;;;;3.92;100.00;99349.59;5053796;28;20447;-69
2024/02/07 05:51:39;;;;;;;1.70;0.50;;;;;;;3.94;100.00;99368.03;5053840;28;20965;-70
2024/02/07 05:54:07;;;;;;;1.50;0.30;;;;;;;3.93;100.00;99345.03;5053843;28;20577;-70
2024/02/07 05:56:33;;;;;;;1.70;0.53;;;;;;;3.95;100.00;99367.78;5053359;28;20968;-70
2024/02/07 05:59:00;;;;;;;1.50;0.30;;;;;;;3.94;100.00;99371.53;5053840;28;21021;-70
2024/02/07 06:01:27;;;;;;;1.50;0.30;;;;;;;3.91;100.00;99365.97;5053059;28;20446;-70
2024/02/07 06:03:54;;;;;;;1.50;0.30;;;;;;;3.89;100.00;99376.94;5068497;22;21017;-72
2024/02/07 06:06:22;;;;;;;1.50;0.30;;;;;;;3.91;100.00;99369.44;5053295;28;20434;-71
2024/02/07 06:08:52;;;;;;;1.50;0.30;;;;;;;3.94;100.00;99360.81;5053160;28;20486;-71
2024/02/07 06:11:18;;;;;;;1.60;0.50;;;;;;;4.00;100.00;99364.22;5053596;28;20477;-71
2024/02/07 06:13:46;;;;;;;1.50;0.40;;;;;;;4.01;100.00;99376.53;5033172;28;20578;-71
2024/02/07 06:16:13;;;;;;;1.50;0.30;;;;;;;4.03;100.00;99363.66;5033214;28;20849;-71
2024/02/07 06:18:40;;;;;;;1.50;0.40;;;;;;;4.05;100.00;99370.31;5036010;28;20950;-71
2024/02/07 06:21:06;;;;;;;1.50;0.30;;;;;;;4.09;100.00;99372.44;5037239;28;20453;-71
2024/02/07 06:23:33;;;;;;;1.50;0.30;;;;;;;4.12;100.00;99380.69;5037714;28;20451;-71
2024/02/07 06:26:01;;;;;;;3.70;0.70;;;;;;;4.07;100.00;99375.38;5037312;28;20534;-71
2024/02/07 06:28:27;;;;;;;1.50;0.30;;;;;;;4.07;100.00;99372.69;5036955;28;20439;-71
2024/02/07 06:30:54;;;;;;;1.50;0.30;;;;;;;4.09;100.00;99370.53;5036908;28;20490;-71
2024/02/07 06:33:21;;;;;;;1.50;0.30;;;;;;;4.12;100.00;99377.19;5036461;28;20486;-71
2024/02/07 06:35:48;;;;;;;1.70;0.67;;;;;;;4.12;100.00;99371.84;5036797;28;20447;-72
2024/02/07 06:38:14;;;;;;;1.50;0.30;;;;;;;4.18;100.00;99378.75;5036445;28;20446;-71
2024/02/07 06:40:41;;;;;;;1.53;0.40;;;;;;;4.21;100.00;99378.97;5036895;28;20439;-72
2024/02/07 06:43:09;;;;;;;1.50;0.40;;;;;;;4.22;100.00;99379.75;5036649;28;20462;-72
2024/02/07 06:45:36;;;;;;;1.50;0.30;;;;;;;4.28;100.00;99387.44;5036703;28;20534;-70
2024/02/07 06:48:02;;;;;;;1.70;0.60;;;;;;;4.24;100.00;99383.72;5036252;28;20532;-72
2024/02/07 06:50:29;;;;;;;1.80;0.83;;;;;;;4.24;100.00;99382.94;5036568;28;20615;-71
2024/02/07 06:52:56;;;;;;;1.50;0.40;;;;;;;4.22;100.00;99391.28;5036592;28;20905;-71
2024/02/07 06:55:23;;;;;;;1.50;0.30;;;;;;;4.22;100.00;99388.59;5036390;28;20522;-71
2024/02/07 06:57:50;;;;;;;1.50;0.30;;;;;;;4.26;100.00;99392.28;5036315;28;20454;-72
2024/02/07 07:00:19;;;;;;;1.50;0.30;;;;;;;4.29;100.00;99401.63;5036320;28;20530;-71
2024/02/07 07:02:45;;;;;;;1.50;0.40;;;;;;;4.30;100.00;99398.66;5036020;28;20463;-72
2024/02/07 07:05:12;;;;;;;1.50;0.30;;;;;;;4.37;100.00;99397.50;5036200;28;20469;-71
2024/02/07 07:07:39;;;;;;;1.50;0.30;;;;;;;4.32;100.00;99397.56;5036280;28;20867;-71
2024/02/07 07:10:06;;;;;;;1.50;0.40;;;;;;;4.35;100.00;99391.66;5036231;28;20461;-72
2024/02/07 07:12:33;;;;;;;1.50;0.30;;;;;;;4.37;100.00;99395.63;5036029;28;20487;-72
2024/02/07 07:15:00;;;;;;;1.57;0.30;;;;;;;4.43;100.00;99397.16;5036362;28;20526;-72
2024/02/07 07:17:28;;;;;;;2.63;0.60;;;;;;;4.42;100.00;99400.09;5036041;28;20447;-72
2024/02/07 07:19:54;;;;;;;1.57;0.40;;;;;;;4.41;100.00;99403.88;5036424;28;20466;-73
2024/02/07 07:22:21;;;;;;;1.50;0.30;;;;;;;4.42;100.00;99411.63;5035595;28;20458;-72
2024/02/07 07:24:47;;;;;;;1.50;0.30;;;;;;;4.40;100.00;99415.69;5036279;28;20501;-72
2024/02/07 07:27:14;;;;;;;1.50;0.30;;;;;;;4.50;100.00;99424.41;5036219;28;20442;-72
2024/02/07 07:29:40;;;;;;;1.50;0.30;;;;;;;4.57;100.00;99417.88;5036205;28;20444;-72
2024/02/07 07:32:09;;;;;;;1.50;0.30;;;;;;;4.55;100.00;99420.84;5035629;28;20963;-72
2024/02/07 07:34:37;;;;;;;8.70;0.60;;;;;;;4.56;100.00;99422.47;5036033;28;20482;-72
2024/02/07 07:37:04;;;;;;;7.10;0.60;;;;;;;4.53;100.00;99421.13;5035688;28;20479;-72
2024/02/07 07:39:30;;;;;;;1.50;0.30;;;;;;;4.63;100.00;99422.88;5035302;28;20527;-73
2024/02/07 07:41:57;;;;;;;3.00;0.53;;;;;;;4.62;100.00;99423.19;5035567;28;20459;-72
2024/02/07 07:44:24;;;;;;;1.47;0.30;;;;;;;4.63;100.00;99427.44;5035201;28;20432;-73
2024/02/07 07:46:50;;;;;;;1.50;0.40;;;;;;;4.74;100.00;99428.91;5035691;28;20518;-73
2024/02/07 07:49:17;;;;;;;2.60;0.50;;;;;;;4.71;100.00;99438.31;5035486;28;20435;-73
2024/02/07 07:51:45;;;;;;;1.70;0.53;;;;;;;4.72;100.00;99437.22;5035173;28;20467;-72
2024/02/07 07:54:12;;;;;;;5.03;1.63;;;;;;;4.70;100.00;99441.31;5035296;28;20577;-72
2024/02/07 07:56:39;;;;;;;1.50;0.30;;;;;;;4.76;100.00;99440.13;5035422;28;20478;-72
2024/02/07 07:59:05;;;;;;;1.60;0.40;;;;;;;4.72;100.00;99439.91;5035639;28;20447;-73
2024/02/07 08:01:32;;;;;;;1.60;0.40;;;;;;;4.81;100.00;99448.09;5035311;28;20506;-74
2024/02/07 08:03:58;;;;;;;1.50;0.30;;;;;;;4.88;100.00;99453.13;5034988;28;20535;-74
2024/02/07 08:06:25;;;;;;;1.50;0.40;;;;;;;4.87;100.00;99449.63;5035577;28;20443;-74
2024/02/07 08:08:53;;;;;;;1.50;0.30;;;;;;;4.89;100.00;99457.38;5035093;28;20440;-73
2024/02/07 08:11:20;;;;;;;1.50;0.30;;;;;;;4.91;100.00;99455.19;5035157;28;20886;-73
2024/02/07 08:13:46;;;;;;;2.07;0.80;;;;;;;4.90;100.00;99461.66;5034734;28;20537;-73
2024/02/07 08:16:13;;;;;;;1.50;0.30;;;;;;;4.89;100.00;99468.13;5034662;28;20530;-73
2024/02/07 08:18:40;;;;;;;1.60;0.50;;;;;;;4.93;100.00;99464.56;5034898;28;20451;-73
2024/02/07 08:21:06;;;;;;;1.60;0.50;;;;;;;4.94;100.00;99470.72;5034862;28;20474;-73
2024/02/07 08:23:33;;;;;;;1.50;0.30;;;;;;;4.98;100.00;99477.09;5034754;28;20455;-73
2024/02/07 08:26:01;;;;;;;1.50;0.40;;;;;;;4.99;100.00;99478.69;5034716;28;20443;-73
2024/02/07 08:28:28;;;;;;;1.50;0.30;;;;;;;4.96;100.00;99472.03;5035068;28;20439;-73
2024/02/07 08:30:54;;;;;;;4.57;0.93;;;;;;;5.07;100.00;99481.50;5035023;28;20530;-73
2024/02/07 08:33:21;;;;;;;1.87;0.60;;;;;;;5.10;100.00;99492.78;5034773;28;20497;-73
2024/02/07 08:35:48;;;;;;;1.50;0.40;;;;;;;5.09;100.00;99480.41;5034606;28;20489;-73
2024/02/07 08:38:14;;;;;;;1.60;0.40;;;;;;;5.10;100.00;99471.31;5034346;28;20526;-72
2024/02/07 08:40:41;;;;;;;1.90;0.77;;;;;;;5.18;100.00;99476.81;5034279;28;20553;-73
2024/02/07 08:43:09;;;;;;;1.60;0.40;;;;;;;5.14;100.00;99497.25;5034751;28;20542;-71
2024/02/07 08:45:37;;;;;;;1.50;0.40;;;;;;;5.16;100.00;99478.97;5034269;28;20446;-73
2024/02/07 08:48:05;;;;;;;1.60;0.40;;;;;;;5.21;100.00;99492.31;5034076;28;20443;-74
2024/02/07 08:50:32;;;;;;;1.50;0.40;;;;;;;5.30;100.00;99503.19;5034388;28;20543;-73
2024/02/07 08:52:59;;;;;;;1.60;0.50;;;;;;;5.32;100.00;99493.75;5034124;28;21016;-72
2024/02/07 08:55:25;;;;;;;1.70;0.40;;;;;;;5.38;100.00;99512.47;5034174;28;20526;-72
2024/02/07 08:57:52;;;;;;;1.50;0.30;;;;;;;5.39;100.00;99514.06;5034419;28;20485;-72
2024/02/07 09:00:20;;;;;;;1.60;0.40;;;;;;;5.40;100.00;99507.59;5034084;28;20446;-72
2024/02/07 09:02:49;;;;;;;1.60;0.47;;;;;;;5.39;100.00;99512.16;5034281;28;20463;-72
2024/02/07 09:05:17;;;;;;;1.70;0.53;;;;;;;5.39;100.00;99504.09;5034324;28;20533;-72
2024/02/07 09:07:43;;;;;;;1.50;0.40;;;;;;;5.42;100.00;99500.84;5033849;28;20493;-72
2024/02/07 09:10:11;;;;;;;1.83;0.53;;;;;;;5.49;100.00;99505.81;5034284;28;20486;-72
2024/02/07 09:12:37;;;;;;;1.63;0.43;;;;;;;5.52;100.00;99502.56;5033854;28;20470;-72
2024/02/07 09:15:05;;;;;;;1.50;0.40;;;;;;;5.55;100.00;99501.97;5033843;28;21010;-72
2024/02/07 09:17:33;;;;;;;1.50;0.30;;;;;;;5.51;100.00;99517.09;5033619;28;20969;-72
2024/02/07 09:19:59;;;;;;;1.50;0.30;;;;;;;5.54;100.00;99522.69;5033835;28;20489;-72
2024/02/07 09:22:26;;;;;;;1.50;0.30;;;;;;;5.51;100.00;99509.03;5033668;28;20786;-72
2024/02/07 09:24:53;;;;;;;1.90;0.60;;;;;;;5.51;100.00;99528.63;5033399;28;20867;-72
2024/02/07 09:27:19;;;;;;;1.60;0.37;;;;;;;5.49;100.00;99522.75;5033951;28;20479;-72
2024/02/07 09:29:46;;;;;;;1.50;0.30;;;;;;;5.51;100.00;99517.88;5033703;28;20471;-73
2024/02/07 09:32:13;;;;;;;1.90;0.70;;;;;;;5.49;100.00;99533.50;5033550;28;20520;-72
2024/02/07 09:34:44;;;;;;;1.60;0.40;;;;;;;5.57;100.00;99537.38;5033560;28;20493;-72
2024/02/07 09:37:11;;;;;;;2.30;0.40;;;;;;;5.53;100.00;99539.06;5033671;28;20466;-72
2024/02/07 09:39:37;;;;;;;1.97;0.70;;;;;;;5.49;100.00;99556.84;5033898;28;20439;-72
2024/02/07 09:42:05;;;;;;;1.50;0.30;;;;;;;5.49;100.00;99562.22;5033411;28;20470;-72
2024/02/07 09:44:32;;;;;;;1.60;0.50;;;;;;;5.46;100.00;99576.25;5033141;28;20443;-72
2024/02/07 09:47:01;;;;;;;1.50;0.30;;;;;;;5.47;100.00;99580.53;5033400;28;20439;-72
2024/02/07 09:49:29;;;;;;;3.40;0.60;;;;;;;5.50;99.92;99575.38;5033162;28;20466;-72
2024/02/07 09:51:57;;;;;;;1.50;0.30;;;;;;;5.55;99.48;99571.81;5033198;28;21009;-72
2024/02/07 09:54:24;;;;;;;5.97;1.07;;;;;;;5.48;99.63;99574.84;5037227;28;20849;-72
2024/02/07 09:56:53;;;;;;;4.70;0.80;;;;;;;5.50;100.00;99582.63;5037907;28;20443;-72
2024/02/07 09:59:20;;;;;;;1.70;0.50;;;;;;;5.55;99.94;99577.97;5037824;28;20443;-72
2024/02/07 10:01:48;;;;;;;1.70;0.50;;;;;;;5.51;100.00;99589.59;5037471;28;20447;-72
2024/02/07 10:04:18;;;;;;;1.50;0.30;;;;;;;5.51;100.00;99584.22;5037066;28;20538;-72
2024/02/07 10:06:46;;;;;;;1.60;0.43;;;;;;;5.57;100.00;99601.84;5037917;28;20526;-72
2024/02/07 10:09:15;;;;;;;2.27;0.50;;;;;;;5.56;100.00;99598.38;5037626;28;20474;-72
2024/02/07 10:11:46;;;;;;;3.93;0.63;;;;;;;5.57;100.00;99593.78;5036995;28;20805;-71
2024/02/07 10:14:13;;;;;;;1.70;0.67;;;;;;;5.61;100.00;99592.13;5036897;28;20974;-71
2024/02/07 10:16:40;;;;;;;1.70;0.40;;;;;;;5.69;100.00;99596.84;5037587;28;20534;-72
2024/02/07 10:19:07;;;;;;;5.30;1.33;;;;;;;5.76;97.81;99608.00;5037459;28;20525;-72
2024/02/07 10:21:34;;;;;;;1.70;0.60;;;;;;;5.88;96.40;99602.16;5037088;28;20811;-72
2024/02/07 10:24:00;;;;;;;3.00;0.63;;;;;;;5.89;94.64;99611.03;5037094;28;20448;-72
2024/02/07 10:26:28;;;;;;;2.13;0.63;;;;;;;5.89;94.89;99603.78;5036708;28;20451;-72
2024/02/07 10:28:59;;;;;;;2.43;0.70;;;;;;;5.97;94.92;99615.75;5037373;28;20535;-72
2024/02/07 10:31:25;;;;;;;1.60;0.40;;;;;;;5.90;95.19;99615.31;5036595;28;20862;-72
2024/02/07 10:33:52;;;;;;;1.73;0.50;;;;;;;5.88;96.96;99618.28;5036518;28;20488;-72
2024/02/07 10:36:23;;;;;;;2.53;1.00;;;;;;;5.88;95.71;99623.66;5036533;28;20835;-72
2024/02/07 10:38:49;;;;;;;1.60;0.40;;;;;;;5.86;93.54;99614.31;5036661;28;20514;-72
2024/02/07 10:41:16;;;;;;;1.93;0.70;;;;;;;5.87;93.34;99640.09;5036818;28;20442;-72
2024/02/07 10:43:44;;;;;;;2.10;0.60;;;;;;;5.97;93.92;99639.94;5036596;28;20511;-72
2024/02/07 10:46:13;;;;;;;7.93;0.50;;;;;;;5.91;93.26;99646.47;5036649;28;20467;-72
2024/02/07 10:48:41;;;;;;;1.70;0.50;;;;;;;5.81;84.90;99650.91;5036649;28;20446;-72
2024/02/07 10:51:07;;;;;;;1.60;0.50;;;;;;;5.82;81.04;99652.50;5036335;28;20994;-72
2024/02/07 10:53:34;;;;;;;2.20;0.93;;;;;;;5.71;77.09;99648.41;5036383;28;20459;-72
2024/02/07 10:56:04;;;;;;;1.60;0.40;;;;;;;5.70;78.08;99660.22;5036455;28;20470;-71
2024/02/07 10:58:32;;;;;;;1.90;0.70;;;;;;;5.81;79.41;99661.66;5036439;28;20450;-71
2024/02/07 11:01:00;;;;;;;1.50;0.30;;;;;;;5.87;75.83;99667.75;5036406;28;20443;-72
2024/02/07 11:03:29;;;;;;;1.80;0.50;;;;;;;5.75;75.50;99662.81;5035975;28;20471;-71
2024/02/07 11:05:57;;;;;;;1.90;0.60;;;;;;;5.74;73.64;99661.22;5036313;28;20431;-72
2024/02/07 11:08:25;;;;;;;1.70;0.50;;;;;;;5.79;73.66;99657.66;5036233;28;20522;-72
2024/02/07 11:10:53;;;;;;;1.50;0.30;;;;;;;5.92;76.04;99643.53;5036189;28;20526;-68
2024/02/07 11:13:20;;;;;;;1.53;0.30;;;;;;;6.05;76.80;99641.97;5035811;28;20829;-69
2024/02/07 11:15:47;;;;;;;2.70;0.70;;;;;;;6.13;73.49;99651.25;5035670;28;20497;-72
2024/02/07 11:18:15;;;;;;;1.60;0.40;;;;;;;6.37;70.42;99651.13;5035875;28;20814;-73
2024/02/07 11:20:44;;;;;;;1.50;0.30;;;;;;;6.42;70.14;99649.16;5036066;28;20478;-75
2024/02/07 11:23:16;;;;;;;2.30;0.77;;;;;;;6.55;71.11;99650.25;5035807;28;20459;-74
2024/02/07 11:25:46;;;;;;;1.50;0.30;;;;;;;6.62;69.93;99669.50;5036058;28;20495;-73
2024/02/07 11:28:12;;;;;;;2.53;0.77;;;;;;;6.70;68.93;99666.13;5035515;28;20485;-73
2024/02/07 11:30:40;;;;;;;1.60;0.40;;;;;;;6.81;66.79;99666.72;5035696;28;20471;-72
2024/02/07 11:33:10;;;;;;;2.43;0.50;;;;;;;6.95;68.40;99661.31;5035904;28;20467;-73
2024/02/07 11:35:39;;;;;;;1.60;0.40;;;;;;;7.25;67.87;99660.72;5035711;28;20471;-73
2024/02/07 11:38:05;;;;;;;1.80;0.60;;;;;;;7.63;65.02;99662.34;5035547;28;20470;-73
2024/02/07 11:40:39;;;;;;;1.60;0.40;;;;;;;7.92;62.66;99670.03;5036133;28;20526;-73
2024/02/07 11:43:09;;;;;;;2.07;0.50;;;;;;;8.15;62.21;99665.44;5035655;28;20499;-73
2024/02/07 11:45:38;;;;;;;2.90;0.53;;;;;;;8.45;60.70;99669.28;5035676;28;20428;-72
2024/02/07 11:48:16;;;;;;;3.80;0.50;;;;;;;8.11;60.92;99667.16;5035562;28;20448;-73
2024/02/07 11:50:45;;;;;;;1.60;0.40;;;;;;;8.20;61.76;99659.94;5035614;28;20438;-73
2024/02/07 11:53:19;;;;;;;1.90;0.87;;;;;;;8.51;59.82;99670.78;5035370;28;20463;-73
2024/02/07 11:55:46;;;;;;;1.60;0.40;;;;;;;8.43;58.91;99671.50;5035339;28;20463;-72
2024/02/07 11:58:16;;;;;;;1.80;0.50;;;;;;;8.21;61.61;99670.41;5035300;28;20526;-73
2024/02/07 12:00:42;;;;;;;2.97;0.73;;;;;;;7.76;59.75;99683.88;5034960;28;20934;-73
2024/02/07 12:03:13;;;;;;;1.57;0.40;;;;;;;7.61;61.69;99681.50;5035036;28;20522;-72
2024/02/07 12:05:40;;;;;;;1.60;0.40;;;;;;;7.55;64.27;99690.81;5035334;28;20424;-72
2024/02/07 12:10:50;;;;;;;3.70;0.60;;;;;;;7.52;62.39;99681.41;5053098;28;20829;-66
2024/02/07 12:13:17;;;;;;;1.70;0.47;;;;;;;7.64;60.38;99688.97;5071075;28;20458;-67
2024/02/07 12:15:43;;;;;;;1.53;0.30;;;;;;;7.72;60.85;99696.34;5073927;28;20572;-66
2024/02/07 12:18:10;;;;;;;1.60;0.40;;;;;;;7.86;61.02;99690.13;5074671;28;20452;-66
2024/02/07 12:20:37;;;;;;;1.90;0.60;;;;;;;7.78;60.09;99694.34;5074815;28;20438;-67
2024/02/07 12:23:04;;;;;;;1.63;0.40;;;;;;;7.65;58.34;99701.34;5074662;28;20469;-66
2024/02/07 12:25:33;;;;;;;1.57;0.33;;;;;;;7.57;59.39;99696.69;5074270;28;20446;-69
2024/02/07 12:28:09;;;;;;;1.57;0.30;;;;;;;7.49;58.56;99724.34;5074560;28;20544;-66
2024/02/07 12:30:36;;;;;;;1.60;0.40;;;;;;;7.31;57.50;99710.69;5074551;28;20436;-65
2024/02/07 12:33:03;;;;;;;1.50;0.30;;;;;;;7.18;58.61;99706.13;5074815;28;20500;-66
2024/02/07 12:35:30;;;;;;;2.47;0.40;;;;;;;7.08;59.26;99719.75;5074432;28;20477;-66
2024/02/07 12:37:58;;;;;;;1.90;0.50;;;;;;;6.95;59.90;99712.47;5074506;28;20527;-66
2024/02/07 12:40:30;;;;;;;2.63;0.83;;;;;;;6.92;60.72;99711.19;5074332;28;20445;-66
2024/02/07 12:42:58;;;;;;;1.67;0.40;;;;;;;6.91;61.51;99711.50;5074139;28;20465;-66